Relevés horaires Koksijde (Belgique)


Relevés horaires à Koksijde - Mardi 02 Mai 2023
Heure UTC1 Température [°C] Vent [km/h] Hum. [%] Pres.4 [hPa] Visi. [Km] Nébu. [octa] Préc.5 [mm] Cond.
2m. Res. Ros. Dir.2 Vit. Moy. Raf.3
23:00 5.6 5.6 2.9 ENE 3.7 -- 3.7 83 1028.7(-0.1/3h) 19 -- -- --
22:00 5.8 5.8 3.1 NNO 1.9 -- 5.6 83 1028.9(0.2/3h) 19 -- -- --
21:00 6.4 6.4 3.2 ENE 3.7 -- 16.7 80 1029(0.5/3h) 20 2/8 -- --
20:00 7.5 6.7 2.8 NE 5.6 -- 11.1 72 1028.9(0.4/3h) 20 2/8 -- --
19:00 8.5 7.4 3.3 NE 7.4 -- 16.7 70 1028.7(0.3/3h) 20 2/8 -- --
18:00 9.6 8 3.6 NNE 11.1 -- 16.7 66 1028.5(0.1/3h) 20 1/8 trace/12h
--
17:00 10.5 8.8 4.4 NNE 13.0 -- 16.7 66 1028.4(0.1/3h) 20 1/8 -- --
16:00 10.8 9.4 4.1 NNE 11.1 -- 16.7 63 1028.2(0.1/3h) 20 1/8 -- --
15:00 11.6 10.4 4.3 N 11.1 -- 16.7 61 1028.4(0.6/3h) 20 1/8 -- --
14:00 12.1 11 4.6 N 11.1 -- 14.8 60 1028.2(0.9/3h) 20 3/8 -- --
13:00 12.4 11.6 5.2 NNE 9.3 -- 14.8 61 1028.2(1.0/3h) 20 3/8 -- --
12:00 13.3 12.7 6.6 N 9.3 -- 16.7 64 1027.7(1.0/3h) 20 3/8 trace/6h
--
11:00 12.6 11.8 6.2 NNE 9.3 -- 16.7 65 1027.5(1.2/3h) 20 3/8 -- --
10:00 11.8 10.6 5.5 N 11.1 -- 14.8 65 1027(1.3/3h) 20 3/8 -- --
09:00 11.7 10.5 6.7 NNE 11.1 -- 14.8 71 1026.7(2.0/3h) 20 5/8 -- --
08:00 10.6 9.5 6.3 NE 9.3 -- 14.8 75 1026.2(2.1/3h) 20 7/8 -- --
07:00 10.3 9.1 7.7 NE 9.3 -- 14.8 84 1025.7(2.4/3h) 15 7/8 -- --
06:00 10.3 9.5 8.7 NE 7.4 -- 14.8 90 1024.7(2.1/3h) 15 7/8 0.1/12h
--
05:00 10.2 9 8.6 N 9.3 -- 13.0 90 1024(1.7/3h) 19 -- -- --
04:00 10.3 9.1 9.0 N 9.3 -- 11.1 92 1023.2(1.3/3h) 15 -- -- --
03:00 10.3 10.3 9.1 NNO 1.9 -- 11.1 92 1022.6(0.8/3h) 9 -- -- --
02:00 10.6 10.3 9.4 N 5.6 -- 11.1 92 1022.2(0.9/3h) 7 -- -- --
01:00 11.3 11.3 9.9 N 3.7 -- 5.6 91 1021.8(1.2/3h) 6 -- -- --
00:00 11.3 11.3 10.3 NNO 1.9 -- 11.1 94 1021.7(1.3/3h) 8 -- -- --

1 Coordinated Universal Time. Actuellement il est 14:00 locale et 12:00 UTC.

2 Le vent souffle depuis la direction indiquée vers la direction oposée.

3 Les rafales max. sont disponible 40 min après l'heure du relevé.

4 Pour les stations d'altitude (plus de 600m) le géopotentiel du niveau le plus proche de la pression obligatoire est indiqué.

5 Les stations disposant d'un diffuseur peuvent indiquer "trace". Cela signifie que des précipitations ont touchés le sol mais que la quantité est inférieure à 0.1 mm.

Récapitulatif de la journée
Température [°C] Vent [km/h] Ensoleillement4 [h] Precipitations totale5 [mm] Pression [Hpa]
Min1 Max.2 Moy.3 Max. Min Max.
9.6 13.3 0 16.7 0 h 0 min 0 1021.7 1029.0

1 Température minimale relevée entre 18:00 UTC la veille et 18:00 UTC le jour donné.

2 Température maximale relevée entre 06:00 UTC le jour donné et 06:00 UTC le lendemain.

3 Vent moyen de la journée basé sur les relevés horaires.

4 Ensoleillement en heures relevé entre 06:00 UTC la veille et 06:00 UTC le jour donné.

5 Précipitations totales tombées entre 06:00 UTC la jour donné et 06:00 UTC le lendemain.

Graphiques horaires